createdAt,value
2018-07-14T00:01:44.189Z,100969.20
2018-07-14T00:04:12.284Z,100965.97
2018-07-14T00:06:40.368Z,100962.13
2018-07-14T00:09:08.444Z,100966.66
2018-07-14T00:11:36.528Z,100965.41
2018-07-14T00:14:04.616Z,100965.96
2018-07-14T00:16:32.713Z,100964.93
2018-07-14T00:19:00.857Z,100965.68
2018-07-14T00:21:29.048Z,100958.83
2018-07-14T00:23:57.197Z,100961.19
2018-07-14T00:26:25.323Z,100962.16
2018-07-14T00:28:53.642Z,100957.52
2018-07-14T00:31:21.957Z,100952.47
2018-07-14T00:33:50.204Z,100960.00
2018-07-14T00:36:18.411Z,100959.20
2018-07-14T00:38:46.612Z,100960.33
2018-07-14T00:41:14.767Z,100963.27
2018-07-14T00:43:42.854Z,100965.98
2018-07-14T00:46:11.020Z,100964.11
2018-07-14T00:48:39.064Z,100970.99
2018-07-14T00:51:07.149Z,100963.63
2018-07-14T00:53:35.241Z,100969.98
2018-07-14T00:56:03.330Z,100968.73
2018-07-14T00:58:31.497Z,100968.31
2018-07-14T01:00:59.566Z,100970.66
2018-07-14T01:03:27.624Z,100968.05
2018-07-14T01:05:55.778Z,100967.39
2018-07-14T01:08:23.810Z,100965.94
2018-07-14T01:10:51.884Z,100963.47
2018-07-14T01:13:19.951Z,100963.02
2018-07-14T01:15:48.389Z,100968.73
2018-07-14T01:18:16.480Z,100967.28
2018-07-14T01:20:44.514Z,100960.48
2018-07-14T01:23:12.584Z,100967.59
2018-07-14T01:25:40.676Z,100961.38
2018-07-14T01:28:08.751Z,100965.32
2018-07-14T01:30:36.835Z,100959.73
2018-07-14T01:33:04.986Z,100965.63
2018-07-14T01:35:33.035Z,100974.47
2018-07-14T01:38:01.106Z,100975.97
2018-07-14T01:40:29.188Z,100975.36
2018-07-14T01:42:57.940Z,100983.81
2018-07-14T01:45:26.255Z,100978.41
2018-07-14T01:47:54.339Z,100980.77
2018-07-14T01:50:22.387Z,100981.27
2018-07-14T01:52:50.459Z,100977.69
2018-07-14T01:55:18.538Z,100974.91
2018-07-14T01:57:46.627Z,100971.70
2018-07-14T02:00:14.687Z,100974.05
2018-07-14T02:02:42.742Z,100974.41
2018-07-14T02:05:10.827Z,100980.34
2018-07-14T02:07:38.883Z,100970.39
2018-07-14T02:10:07.169Z,100972.94
2018-07-14T02:12:35.251Z,100971.70
2018-07-14T02:15:03.367Z,100974.40
2018-07-14T02:17:31.427Z,100971.43
2018-07-14T02:19:59.583Z,100974.55
2018-07-14T02:22:27.680Z,100975.52
2018-07-14T02:24:55.878Z,100974.47
2018-07-14T02:27:24.168Z,100973.47
2018-07-14T02:29:52.415Z,100975.81
2018-07-14T02:32:20.892Z,100975.36
2018-07-14T02:34:49.041Z,100975.97
2018-07-14T02:37:17.232Z,100975.00
2018-07-14T02:39:45.366Z,100975.00
2018-07-14T02:42:13.534Z,100969.02
2018-07-14T02:44:41.633Z,100967.56
2018-07-14T02:47:09.728Z,100959.96
2018-07-14T02:49:37.784Z,100968.29
2018-07-14T02:52:06.859Z,100964.27
2018-07-14T02:54:34.916Z,100962.66
2018-07-14T02:57:03.437Z,100963.00
2018-07-14T02:59:31.514Z,100964.19
2018-07-14T03:01:59.650Z,100968.70
2018-07-14T03:04:27.805Z,100971.05
2018-07-14T03:06:56.019Z,100970.16
2018-07-14T03:09:24.300Z,100967.38
2018-07-14T03:11:52.539Z,100967.19
2018-07-14T03:14:21.131Z,100966.95
2018-07-14T03:16:49.311Z,100967.19
2018-07-14T03:19:17.462Z,100966.38
2018-07-14T03:21:45.552Z,100969.95
2018-07-14T03:24:13.691Z,100947.52
2018-07-14T03:26:41.755Z,100963.83
2018-07-14T03:29:09.831Z,100961.41
2018-07-14T03:31:37.896Z,100961.17
2018-07-14T03:34:06.129Z,100964.09
2018-07-14T03:36:34.228Z,100960.75
2018-07-14T03:39:02.288Z,100963.95
2018-07-14T03:41:30.494Z,100961.05
2018-07-14T03:43:58.639Z,100964.41
2018-07-14T03:46:26.761Z,100960.02
2018-07-14T03:48:54.931Z,100964.61
2018-07-14T03:51:22.975Z,100966.88
2018-07-14T03:53:51.035Z,100964.55
2018-07-14T03:56:19.135Z,100957.91
2018-07-14T03:58:47.175Z,100952.45
2018-07-14T04:01:15.299Z,100958.34
2018-07-14T04:03:43.356Z,100956.80
2018-07-14T04:06:11.583Z,100958.05
2018-07-14T04:08:39.643Z,100962.09
2018-07-14T04:11:07.896Z,100965.56
2018-07-14T04:13:36.194Z,100961.91
2018-07-14T04:16:04.367Z,100958.13
2018-07-14T04:18:32.570Z,100963.06
2018-07-14T04:21:00.637Z,100964.69
2018-07-14T04:23:28.695Z,100964.03
2018-07-14T04:25:56.857Z,100961.55
2018-07-14T04:28:25.119Z,100960.16
2018-07-14T04:30:53.348Z,100969.53
2018-07-14T04:33:21.518Z,100976.82
2018-07-14T04:35:49.686Z,100963.17
2018-07-14T04:38:17.875Z,100965.32
2018-07-14T04:40:45.979Z,100965.78
2018-07-14T04:43:14.718Z,100964.72
2018-07-14T04:45:42.780Z,100971.45
2018-07-14T04:48:11.431Z,100964.63
2018-07-14T04:50:39.496Z,100974.83
2018-07-14T04:53:07.610Z,100976.72
2018-07-14T04:55:35.679Z,100971.03
2018-07-14T04:58:03.779Z,100964.08
2018-07-14T05:00:31.826Z,100964.88
2018-07-14T05:02:59.886Z,100957.91
2018-07-14T05:05:27.975Z,100963.91
2018-07-14T05:07:56.056Z,100961.02
2018-07-14T05:10:24.179Z,100954.45
2018-07-14T05:12:52.234Z,100956.11
2018-07-14T05:15:20.413Z,100961.23
2018-07-14T05:17:48.491Z,100958.28
2018-07-14T05:20:16.555Z,100960.97
2018-07-14T05:22:44.607Z,100955.68
2018-07-14T05:25:12.693Z,100956.13
2018-07-14T05:27:40.776Z,100951.48
2018-07-14T05:30:08.818Z,100951.64
2018-07-14T05:32:36.871Z,100957.55
2018-07-14T05:35:05.296Z,100963.35
2018-07-14T05:37:33.352Z,100963.87
2018-07-14T05:40:01.412Z,100957.91
2018-07-14T05:42:29.694Z,100959.33
2018-07-14T05:44:57.802Z,100954.99
2018-07-14T05:47:25.874Z,100955.55
2018-07-14T05:49:53.948Z,100957.27
2018-07-14T05:52:22.466Z,100951.23
2018-07-14T05:54:50.507Z,100952.21
2018-07-14T05:57:18.563Z,100954.03
2018-07-14T05:59:46.740Z,100953.77
2018-07-14T06:02:14.815Z,100957.85
2018-07-14T06:04:42.867Z,100959.02
2018-07-14T06:07:10.932Z,100965.78
2018-07-14T06:09:39.050Z,100952.75
2018-07-14T06:12:07.100Z,100957.53
2018-07-14T06:14:35.147Z,100957.39
2018-07-14T06:17:03.197Z,100961.39
2018-07-14T06:19:31.266Z,100965.45
2018-07-14T06:21:59.303Z,100969.64
2018-07-14T06:24:27.491Z,100961.97
2018-07-14T06:26:55.539Z,100967.88
2018-07-14T06:29:24.380Z,100969.71
2018-07-14T06:31:52.514Z,100969.69
2018-07-14T06:34:20.550Z,100969.06
2018-07-14T06:36:48.643Z,100968.56
2018-07-14T06:39:16.765Z,100968.08
2018-07-14T06:41:44.832Z,100976.99
2018-07-14T06:44:12.935Z,100967.30
2018-07-14T06:46:40.974Z,100971.16
2018-07-14T06:49:09.116Z,100966.78
2018-07-14T06:51:37.216Z,100972.23
2018-07-14T06:54:05.263Z,100974.33
2018-07-14T06:56:33.375Z,100977.80
2018-07-14T06:59:01.452Z,100977.66
2018-07-14T07:01:29.760Z,100980.97
2018-07-14T07:03:57.991Z,100975.75
2018-07-14T07:06:26.139Z,100982.70
2018-07-14T07:08:54.203Z,100984.93
2018-07-14T07:11:22.247Z,100985.30
2018-07-14T07:13:50.756Z,100980.81
2018-07-14T07:16:18.743Z,100974.39
2018-07-14T07:18:46.782Z,100973.17
2018-07-14T07:21:15.006Z,100973.28
2018-07-14T07:23:43.303Z,100976.12
2018-07-14T07:26:11.350Z,100972.14
2018-07-14T07:28:39.453Z,100972.49
2018-07-14T07:31:07.520Z,100971.77
2018-07-14T07:33:35.624Z,100975.02
2018-07-14T07:36:03.676Z,100971.32
2018-07-14T07:38:31.760Z,100978.69
2018-07-14T07:40:59.824Z,100972.27
2018-07-14T07:43:27.863Z,100974.41
2018-07-14T07:45:55.945Z,100978.27
2018-07-14T07:48:24.125Z,100979.03
2018-07-14T07:50:52.173Z,100973.40
2018-07-14T07:53:20.236Z,100983.33
2018-07-14T07:55:48.357Z,100975.75
2018-07-14T07:58:16.529Z,100975.63
2018-07-14T08:00:44.605Z,100974.60
2018-07-14T08:03:12.656Z,100974.95
2018-07-14T08:05:40.763Z,100976.42
2018-07-14T08:08:08.856Z,100985.20
2018-07-14T08:10:36.936Z,100976.02
2018-07-14T08:13:05.072Z,100973.91
2018-07-14T08:15:33.159Z,100971.21
2018-07-14T08:18:01.583Z,100980.97
2018-07-14T08:20:29.653Z,100970.92
2018-07-14T08:22:57.902Z,100974.98
2018-07-14T08:25:25.819Z,100975.78
2018-07-14T08:27:53.892Z,100973.69
2018-07-14T08:30:21.947Z,100982.77
2018-07-14T08:32:50.028Z,100985.70
2018-07-14T08:35:18.088Z,100975.84
2018-07-14T08:37:46.144Z,100979.63
2018-07-14T08:40:14.203Z,100966.77
2018-07-14T08:42:42.261Z,100970.96
2018-07-14T08:45:10.368Z,100970.86
2018-07-14T08:47:38.407Z,100977.97
2018-07-14T08:50:06.599Z,100980.03
2018-07-14T08:52:34.644Z,100977.66
2018-07-14T08:55:02.936Z,100970.66
2018-07-14T08:57:31.012Z,100967.61
2018-07-14T08:59:59.062Z,100971.37
2018-07-14T09:02:27.116Z,100969.58
2018-07-14T09:04:55.170Z,100973.69
2018-07-14T09:07:23.263Z,100968.14
2018-07-14T09:09:51.291Z,100971.16
2018-07-14T09:12:19.385Z,100968.65
2018-07-14T09:14:47.449Z,100967.71
2018-07-14T09:17:15.480Z,100969.38
2018-07-14T09:19:43.763Z,100970.54
2018-07-14T09:22:11.828Z,100971.64
2018-07-14T09:24:39.904Z,100975.88
2018-07-14T09:27:07.979Z,100961.63
2018-07-14T09:29:36.387Z,100957.06
2018-07-14T09:32:04.427Z,100956.11
2018-07-14T09:34:32.609Z,100953.95
2018-07-14T09:37:01.111Z,100958.74
2018-07-14T09:39:29.171Z,100959.13
2018-07-14T09:41:57.264Z,100953.85
2018-07-14T09:44:25.500Z,100944.85
2018-07-14T09:46:53.540Z,100954.62
2018-07-14T09:49:21.844Z,100950.33
2018-07-14T09:51:49.915Z,100947.39
2018-07-14T09:54:18.032Z,100937.72
2018-07-14T09:56:46.051Z,100937.39
2018-07-14T09:59:14.295Z,100942.41
2018-07-14T10:01:42.351Z,100942.84
2018-07-14T10:04:10.420Z,100934.56
2018-07-14T10:06:38.488Z,100933.64
2018-07-14T10:09:06.966Z,100935.45
2018-07-14T10:11:35.255Z,100936.21
2018-07-14T10:14:03.410Z,100933.00
2018-07-14T10:16:31.640Z,100933.71
2018-07-14T10:18:59.821Z,100940.50
2018-07-14T10:21:27.964Z,100943.86
2018-07-14T10:23:56.141Z,100935.92
2018-07-14T10:26:24.420Z,100933.44
2018-07-14T10:28:52.979Z,100925.65
2018-07-14T10:31:21.127Z,100925.91
2018-07-14T10:33:49.648Z,100932.82
2018-07-14T10:36:18.139Z,100933.78
2018-07-14T10:38:46.288Z,100929.81
2018-07-14T10:41:14.295Z,100932.03
2018-07-14T10:43:42.412Z,100926.19
2018-07-14T10:46:10.504Z,100921.39
2018-07-14T10:48:38.684Z,100931.58
2018-07-14T10:51:06.748Z,100924.33
2018-07-14T10:53:34.956Z,100919.70
2018-07-14T10:56:03.039Z,100926.53
2018-07-14T10:58:31.136Z,100921.16
2018-07-14T11:00:59.296Z,100925.12
2018-07-14T11:03:27.432Z,100917.63
2018-07-14T11:05:55.739Z,100922.48
2018-07-14T11:08:24.481Z,100919.04
2018-07-14T11:10:53.116Z,100911.48
2018-07-14T11:13:21.342Z,100911.06
2018-07-14T11:15:49.647Z,100910.27
2018-07-14T11:18:19.274Z,100907.66
2018-07-14T11:20:47.542Z,100896.45
2018-07-14T11:23:15.880Z,100900.61
2018-07-14T11:25:44.014Z,100910.21
2018-07-14T11:28:12.273Z,100896.92
2018-07-14T11:30:40.467Z,100891.69
2018-07-14T11:33:08.644Z,100890.42
2018-07-14T11:35:36.895Z,100889.88
2018-07-14T11:38:05.002Z,100887.64
2018-07-14T11:40:33.212Z,100888.69
2018-07-14T11:43:01.815Z,100889.55
2018-07-14T11:45:30.125Z,100877.87
2018-07-14T11:47:59.405Z,100876.14
2018-07-14T11:50:27.859Z,100884.18
2018-07-14T11:52:56.111Z,100877.11
2018-07-14T11:55:24.577Z,100872.05
2018-07-14T11:57:53.651Z,100871.25
2018-07-14T12:00:22.298Z,100867.71
2018-07-14T12:02:50.611Z,100863.78
2018-07-14T12:05:19.365Z,100870.91
2018-07-14T12:07:48.159Z,100868.29
2018-07-14T12:10:16.279Z,100863.67
2018-07-14T12:12:44.373Z,100866.28
2018-07-14T12:15:12.436Z,100868.54
2018-07-14T12:17:40.507Z,100859.55
2018-07-14T12:20:16.741Z,100855.06
2018-07-14T12:22:44.973Z,100857.47
2018-07-14T12:25:13.068Z,100859.28
2018-07-14T12:27:42.139Z,100858.48
2018-07-14T12:30:10.299Z,100851.81
2018-07-14T12:32:39.095Z,100854.03
2018-07-14T12:35:07.562Z,100856.38
2018-07-14T12:37:35.879Z,100858.31
2018-07-14T12:40:04.131Z,100849.14
2018-07-14T12:42:32.337Z,100848.33
2018-07-14T12:45:00.766Z,100845.97
2018-07-14T12:47:29.343Z,100844.17
2018-07-14T12:49:57.996Z,100846.17
2018-07-14T12:52:26.592Z,100844.72
2018-07-14T12:54:55.184Z,100844.80
2018-07-14T12:57:23.802Z,100841.95
2018-07-14T12:59:53.348Z,100842.56
2018-07-14T13:02:22.275Z,100833.88
2018-07-14T13:04:50.491Z,100834.63
2018-07-14T13:07:18.740Z,100823.53
2018-07-14T13:09:46.808Z,100816.22
2018-07-14T13:12:14.859Z,100818.78
2018-07-14T13:14:42.973Z,100814.82
2018-07-14T13:17:11.071Z,100823.21
2018-07-14T13:19:39.172Z,100816.48
2018-07-14T13:22:07.260Z,100822.60
2018-07-14T13:24:35.321Z,100818.05
2018-07-14T13:27:03.781Z,100821.13
2018-07-14T13:29:32.089Z,100816.43
2018-07-14T13:32:00.472Z,100814.75
2018-07-14T13:34:28.966Z,100812.80
2018-07-14T13:36:57.487Z,100805.39
2018-07-14T13:39:26.215Z,100809.63
2018-07-14T13:41:54.957Z,100808.12
2018-07-14T13:44:23.667Z,100803.89
2018-07-14T13:46:53.113Z,100801.20
2018-07-14T13:49:22.091Z,100794.98
2018-07-14T13:51:50.360Z,100791.95
2018-07-14T13:54:18.560Z,100798.33
2018-07-14T13:56:47.759Z,100787.20
2018-07-14T13:59:16.142Z,100786.84
2018-07-14T14:01:44.206Z,100787.20
2018-07-14T14:04:12.270Z,100785.26
2018-07-14T14:06:40.355Z,100776.05
2018-07-14T14:09:08.776Z,100774.94
2018-07-14T14:11:37.063Z,100781.12
2018-07-14T14:14:05.332Z,100772.02
2018-07-14T14:16:33.509Z,100778.84
2018-07-14T14:19:01.725Z,100771.52
2018-07-14T14:21:29.791Z,100772.84
2018-07-14T14:24:01.393Z,100770.47
2018-07-14T14:26:29.769Z,100765.53
2018-07-14T14:28:59.943Z,100763.77
2018-07-14T14:31:28.271Z,100757.25
2018-07-14T14:33:56.337Z,100754.77
2018-07-14T14:36:24.368Z,100751.25
2018-07-14T14:38:52.421Z,100745.08
2018-07-14T14:41:20.692Z,100745.08
2018-07-14T14:43:48.929Z,100745.78
2018-07-14T14:46:17.051Z,100750.90
2018-07-14T14:48:45.089Z,100746.83
2018-07-14T14:51:13.494Z,100743.13
2018-07-14T14:53:41.588Z,100735.02
2018-07-14T14:56:09.823Z,100741.03
2018-07-14T14:58:37.846Z,100741.38
2018-07-14T15:01:05.971Z,100742.61
2018-07-14T15:03:34.164Z,100741.20
2018-07-14T15:06:03.113Z,100738.87
2018-07-14T15:08:31.370Z,100742.95
2018-07-14T15:10:59.565Z,100736.86
2018-07-14T15:13:27.959Z,100730.09
2018-07-14T15:15:56.409Z,100729.22
2018-07-14T15:18:24.903Z,100727.44
2018-07-14T15:20:53.817Z,100726.19
2018-07-14T15:23:23.620Z,100722.26
2018-07-14T15:25:52.005Z,100721.63
2018-07-14T15:28:20.188Z,100722.88
2018-07-14T15:30:48.274Z,100723.03
2018-07-14T15:33:16.521Z,100726.91
2018-07-14T15:35:44.396Z,100720.66
2018-07-14T15:38:13.079Z,100723.22
2018-07-14T15:40:41.524Z,100721.62
2018-07-14T15:43:09.580Z,100725.33
2018-07-14T15:45:37.626Z,100713.08
2018-07-14T15:48:06.241Z,100716.50
2018-07-14T15:50:35.178Z,100711.91
2018-07-14T15:53:03.523Z,100708.84
2018-07-14T15:55:32.196Z,100697.99
2018-07-14T15:58:00.487Z,100700.38
2018-07-14T16:00:28.654Z,100703.27
2018-07-14T16:02:56.840Z,100704.34
2018-07-14T16:05:24.957Z,100703.81
2018-07-14T16:07:53.385Z,100709.64
2018-07-14T16:10:21.688Z,100700.64
2018-07-14T16:12:49.874Z,100698.19
2018-07-14T16:15:17.925Z,100697.13
2018-07-14T16:17:46.013Z,100692.54
2018-07-14T16:20:14.059Z,100695.36
2018-07-14T16:22:42.108Z,100693.77
2018-07-14T16:25:10.185Z,100692.27
2018-07-14T16:27:38.255Z,100689.64
2018-07-14T16:30:07.152Z,100693.14
2018-07-14T16:32:35.268Z,100690.31
2018-07-14T16:35:03.307Z,100690.27
2018-07-14T16:37:31.460Z,100693.95
2018-07-14T16:39:59.786Z,100691.15
2018-07-14T16:42:28.026Z,100688.84
2018-07-14T16:44:56.445Z,100682.23
2018-07-14T16:47:24.856Z,100683.34
2018-07-14T16:49:53.931Z,100680.89
2018-07-14T16:52:23.158Z,100681.94
2018-07-14T16:54:51.480Z,100688.81
2018-07-14T16:57:19.575Z,100678.44
2018-07-14T16:59:47.647Z,100690.44
2018-07-14T17:02:15.707Z,100692.03
2018-07-14T17:04:43.781Z,100693.85
2018-07-14T17:07:12.450Z,100699.59
2018-07-14T17:09:40.524Z,100702.23
2018-07-14T17:12:08.834Z,100699.78
2018-07-14T17:14:36.963Z,100696.67
2018-07-14T17:17:05.125Z,100699.69
2018-07-14T17:19:33.543Z,100693.41
2018-07-14T17:22:01.916Z,100686.36
2018-07-14T17:24:30.193Z,100694.13
2018-07-14T17:26:58.815Z,100689.39
2018-07-14T17:29:27.495Z,100690.95
2018-07-14T17:31:56.424Z,100687.25
2018-07-14T17:34:25.414Z,100678.80
2018-07-14T17:36:53.964Z,100689.28
2018-07-14T17:39:22.831Z,100685.05
2018-07-14T17:41:51.119Z,100681.27
2018-07-14T17:44:19.448Z,100679.78
2018-07-14T17:46:47.826Z,100681.63
2018-07-14T17:49:16.145Z,100686.20
2018-07-14T17:51:44.258Z,100686.12
2018-07-14T17:54:12.821Z,100685.14
2018-07-14T17:56:40.924Z,100682.86
2018-07-14T17:59:09.073Z,100688.41
2018-07-14T18:01:37.120Z,100686.17
2018-07-14T18:04:05.291Z,100684.77
2018-07-14T18:06:33.364Z,100680.50
2018-07-14T18:09:01.418Z,100680.84
2018-07-14T18:11:29.512Z,100687.35
2018-07-14T18:13:57.588Z,100687.69
2018-07-14T18:16:25.756Z,100684.52
2018-07-14T18:18:53.827Z,100686.17
2018-07-14T18:21:21.959Z,100681.75
2018-07-14T18:23:50.008Z,100686.05
2018-07-14T18:26:18.845Z,100687.80
2018-07-14T18:28:47.216Z,100683.48
2018-07-14T18:31:15.279Z,100690.54
2018-07-14T18:33:43.443Z,100690.80
2018-07-14T18:36:12.003Z,100695.22
2018-07-14T18:38:40.006Z,100691.80
2018-07-14T18:41:08.062Z,100692.66
2018-07-14T18:43:36.283Z,100691.44
2018-07-14T18:46:04.521Z,100702.69
2018-07-14T18:48:32.739Z,100698.52
2018-07-14T18:51:01.280Z,100699.84
2018-07-14T18:53:29.424Z,100698.36
2018-07-14T18:55:57.564Z,100704.59
2018-07-14T18:58:25.736Z,100701.63
2018-07-14T19:00:54.075Z,100707.14
2018-07-14T19:03:22.774Z,100703.33
2018-07-14T19:05:51.087Z,100706.08
2018-07-14T19:08:19.195Z,100708.12
2018-07-14T19:10:47.305Z,100716.30
2018-07-14T19:13:15.456Z,100712.62
2018-07-14T19:15:43.591Z,100717.27
2018-07-14T19:18:11.660Z,100723.62
2018-07-14T19:20:39.709Z,100728.84
2018-07-14T19:23:07.788Z,100734.05
2018-07-14T19:25:35.913Z,100733.97
2018-07-14T19:28:04.097Z,100737.45
2018-07-14T19:30:32.572Z,100742.14
2018-07-14T19:33:00.794Z,100742.04
2018-07-14T19:35:28.959Z,100740.78
2018-07-14T19:37:57.226Z,100740.45
2018-07-14T19:40:25.894Z,100739.70
2018-07-14T19:42:54.002Z,100742.20
2018-07-14T19:45:22.166Z,100741.52
2018-07-14T19:47:50.319Z,100743.36
2018-07-14T19:50:18.584Z,100743.81
2018-07-14T19:52:46.863Z,100741.72
2018-07-14T19:55:15.147Z,100747.78
2018-07-14T19:57:43.207Z,100751.00
2018-07-14T20:00:11.563Z,100752.08
2018-07-14T20:02:39.906Z,100758.75
2018-07-14T20:05:08.034Z,100757.02
2018-07-14T20:07:36.276Z,100752.85
2018-07-14T20:10:04.488Z,100763.49
2018-07-14T20:12:32.842Z,100761.73
2018-07-14T20:15:01.080Z,100763.75
2018-07-14T20:17:29.173Z,100764.22
2018-07-14T20:19:57.328Z,100759.05
2018-07-14T20:22:25.928Z,100764.30
2018-07-14T20:24:54.540Z,100764.52
2018-07-14T20:27:22.906Z,100774.97
2018-07-14T20:29:51.647Z,100769.38
2018-07-14T20:32:19.912Z,100769.60
2018-07-14T20:34:48.062Z,100770.03
2018-07-14T20:37:16.422Z,100774.45
2018-07-14T20:39:44.753Z,100777.61
2018-07-14T20:42:12.811Z,100780.23
2018-07-14T20:44:40.948Z,100780.24
2018-07-14T20:47:09.024Z,100776.47
2018-07-14T20:49:37.187Z,100782.48
2018-07-14T20:52:05.411Z,100779.48
2018-07-14T20:54:33.514Z,100786.09
2018-07-14T20:57:01.644Z,100785.70
2018-07-14T20:59:30.636Z,100783.50
2018-07-14T21:01:58.663Z,100786.72
2018-07-14T21:04:26.843Z,100785.91
2018-07-14T21:06:55.147Z,100787.70
2018-07-14T21:09:23.199Z,100787.52
2018-07-14T21:11:51.256Z,100788.91
2018-07-14T21:14:19.455Z,100790.13
2018-07-14T21:16:47.501Z,100786.34
2018-07-14T21:19:15.572Z,100786.55
2018-07-14T21:21:43.739Z,100786.13
2018-07-14T21:24:11.788Z,100785.34
2018-07-14T21:26:39.835Z,100785.75
2018-07-14T21:29:07.896Z,100783.30
2018-07-14T21:31:35.939Z,100782.31
2018-07-14T21:34:04.263Z,100782.30
2018-07-14T21:36:32.496Z,100789.91
2018-07-14T21:39:00.760Z,100787.89
2018-07-14T21:41:28.931Z,100787.29
2018-07-14T21:43:57.097Z,100794.67
2018-07-14T21:46:25.283Z,100791.27
2018-07-14T21:48:53.589Z,100789.06
2018-07-14T21:51:21.663Z,100793.83
2018-07-14T21:53:49.723Z,100792.23
2018-07-14T21:56:17.908Z,100801.60
2018-07-14T21:58:46.077Z,100797.38
2018-07-14T22:01:19.563Z,100792.59
2018-07-14T22:03:47.620Z,100791.38
2018-07-14T22:06:15.670Z,100795.95
2018-07-14T22:08:43.835Z,100800.34
2018-07-14T22:11:11.967Z,100795.14
2018-07-14T22:13:41.088Z,100792.74
2018-07-14T22:16:13.574Z,100794.12
2018-07-14T22:18:41.636Z,100792.70
2018-07-14T22:21:09.708Z,100788.50
2018-07-14T22:23:41.121Z,100798.24
2018-07-14T22:26:09.208Z,100800.98
2018-07-14T22:28:37.651Z,100800.59
2018-07-14T22:31:05.864Z,100800.38
2018-07-14T22:33:34.844Z,100801.38
2018-07-14T22:36:03.246Z,100804.52
2018-07-14T22:38:31.300Z,100799.70
2018-07-14T22:40:59.357Z,100799.89
2018-07-14T22:43:27.440Z,100802.06
2018-07-14T22:45:55.513Z,100802.03
2018-07-14T22:48:23.616Z,100805.81
2018-07-14T22:50:51.852Z,100803.40
2018-07-14T22:53:19.911Z,100803.96
2018-07-14T22:55:51.788Z,100798.77
2018-07-14T22:58:19.875Z,100799.51
2018-07-14T23:00:47.959Z,100794.09
2018-07-14T23:03:15.988Z,100794.87
2018-07-14T23:05:44.069Z,100796.26
2018-07-14T23:08:12.176Z,100802.17
2018-07-14T23:10:40.286Z,100802.77
2018-07-14T23:13:08.332Z,100804.70
2018-07-14T23:15:36.865Z,100798.52
2018-07-14T23:18:05.071Z,100799.07
2018-07-14T23:20:33.139Z,100802.19
2018-07-14T23:23:01.211Z,100803.73
2018-07-14T23:25:29.285Z,100803.33
2018-07-14T23:27:57.376Z,100798.89
2018-07-14T23:30:25.491Z,100799.08
2018-07-14T23:32:53.576Z,100803.83
2018-07-14T23:35:21.675Z,100800.20
2018-07-14T23:37:49.736Z,100802.14
2018-07-14T23:40:17.819Z,100799.35
2018-07-14T23:42:48.424Z,100798.11
2018-07-14T23:45:16.496Z,100801.29
2018-07-14T23:47:44.564Z,100795.69
2018-07-14T23:50:12.738Z,100794.43
2018-07-14T23:52:40.828Z,100792.22
2018-07-14T23:55:08.899Z,100793.35
2018-07-14T23:57:36.955Z,100795.50
